sensor_id;sensor_type;location;lat;lon;timestamp;noise_LAeq;noise_LA_min;noise_LA_max;noise_LA01;noise_LA95
71030;Laerm;63723;51.436;5.976;2023-03-25T00:00:10;51.48;50.00;54.39;;
71030;Laerm;63723;51.436;5.976;2023-03-25T00:00:24;51.48;49.90;54.31;;
71030;Laerm;63723;51.436;5.976;2023-03-25T00:00:35;51.54;50.00;56.61;;
71030;Laerm;63723;51.436;5.976;2023-03-25T00:00:48;51.68;50.11;55.05;;
71030;Laerm;63723;51.436;5.976;2023-03-25T00:01:05;51.65;50.07;54.24;;
71030;Laerm;63723;51.436;5.976;2023-03-25T00:01:18;51.76;49.94;54.62;;
71030;Laerm;63723;51.436;5.976;2023-03-25T00:01:28;51.54;49.52;55.79;;
71030;Laerm;63723;51.436;5.976;2023-03-25T00:01:41;51.26;49.71;54.01;;
71030;Laerm;63723;51.436;5.976;2023-03-25T00:01:53;51.21;49.61;54.36;;
71030;Laerm;63723;51.436;5.976;2023-03-25T00:02:03;51.27;50.01;54.18;;
71030;Laerm;63723;51.436;5.976;2023-03-25T00:02:15;51.34;49.46;54.37;;
71030;Laerm;63723;51.436;5.976;2023-03-25T00:02:25;51.14;49.51;54.37;;
71030;Laerm;63723;51.436;5.976;2023-03-25T00:02:39;50.89;49.42;53.97;;
71030;Laerm;63723;51.436;5.976;2023-03-25T00:02:50;51.22;49.61;53.86;;
71030;Laerm;63723;51.436;5.976;2023-03-25T00:03:01;51.20;49.60;55.68;;
71030;Laerm;63723;51.436;5.976;2023-03-25T00:03:13;51.97;50.23;58.29;;
71030;Laerm;63723;51.436;5.976;2023-03-25T00:03:24;52.21;50.29;55.02;;
71030;Laerm;63723;51.436;5.976;2023-03-25T00:03:35;52.28;50.06;59.07;;
71030;Laerm;63723;51.436;5.976;2023-03-25T00:03:51;51.44;49.78;54.82;;
71030;Laerm;63723;51.436;5.976;2023-03-25T00:04:02;51.60;49.96;56.04;;
71030;Laerm;63723;51.436;5.976;2023-03-25T00:04:15;51.58;50.09;54.56;;
71030;Laerm;63723;51.436;5.976;2023-03-25T00:04:26;51.49;49.73;54.42;;
71030;Laerm;63723;51.436;5.976;2023-03-25T00:04:36;51.64;49.92;55.15;;
71030;Laerm;63723;51.436;5.976;2023-03-25T00:04:49;51.42;49.80;54.15;;
71030;Laerm;63723;51.436;5.976;2023-03-25T00:04:59;51.33;49.82;53.62;;
71030;Laerm;63723;51.436;5.976;2023-03-25T00:05:12;51.31;49.29;56.30;;
71030;Laerm;63723;51.436;5.976;2023-03-25T00:05:26;51.87;50.18;54.77;;
71030;Laerm;63723;51.436;5.976;2023-03-25T00:05:38;51.56;50.03;54.74;;
71030;Laerm;63723;51.436;5.976;2023-03-25T00:05:48;51.55;50.02;54.14;;
71030;Laerm;63723;51.436;5.976;2023-03-25T00:05:59;51.36;50.00;54.27;;
71030;Laerm;63723;51.436;5.976;2023-03-25T00:06:09;51.38;49.92;53.69;;
71030;Laerm;63723;51.436;5.976;2023-03-25T00:06:21;51.43;50.04;54.89;;
71030;Laerm;63723;51.436;5.976;2023-03-25T00:06:31;51.64;49.54;54.48;;
71030;Laerm;63723;51.436;5.976;2023-03-25T00:06:44;51.27;49.40;54.63;;
71030;Laerm;63723;51.436;5.976;2023-03-25T00:06:55;51.31;49.83;54.94;;
71030;Laerm;63723;51.436;5.976;2023-03-25T00:07:05;51.28;49.75;53.87;;
71030;Laerm;63723;51.436;5.976;2023-03-25T00:07:17;51.44;49.58;54.36;;
71030;Laerm;63723;51.436;5.976;2023-03-25T00:07:28;51.42;49.61;54.42;;
71030;Laerm;63723;51.436;5.976;2023-03-25T00:07:39;51.44;49.59;55.04;;
71030;Laerm;63723;51.436;5.976;2023-03-25T00:07:51;51.22;49.51;55.39;;
71030;Laerm;63723;51.436;5.976;2023-03-25T00:08:01;51.44;50.14;54.49;;
71030;Laerm;63723;51.436;5.976;2023-03-25T00:08:12;51.60;50.36;54.68;;
71030;Laerm;63723;51.436;5.976;2023-03-25T00:08:23;51.79;49.95;54.38;;
71030;Laerm;63723;51.436;5.976;2023-03-25T00:08:34;51.75;50.16;55.26;;
71030;Laerm;63723;51.436;5.976;2023-03-25T00:08:45;51.06;49.23;58.00;;
71030;Laerm;63723;51.436;5.976;2023-03-25T00:08:55;50.71;49.32;54.64;;
71030;Laerm;63723;51.436;5.976;2023-03-25T00:09:06;50.54;49.04;54.02;;
71030;Laerm;63723;51.436;5.976;2023-03-25T00:09:16;50.74;49.25;55.68;;
71030;Laerm;63723;51.436;5.976;2023-03-25T00:09:29;50.72;49.11;55.59;;
71030;Laerm;63723;51.436;5.976;2023-03-25T00:09:39;50.63;49.11;53.89;;
71030;Laerm;63723;51.436;5.976;2023-03-25T00:09:50;50.85;49.15;55.77;;
71030;Laerm;63723;51.436;5.976;2023-03-25T00:10:00;50.70;49.38;53.49;;
71030;Laerm;63723;51.436;5.976;2023-03-25T00:10:11;50.78;49.49;54.49;;
71030;Laerm;63723;51.436;5.976;2023-03-25T00:10:21;50.68;48.73;53.99;;
71030;Laerm;63723;51.436;5.976;2023-03-25T00:10:32;50.69;49.22;53.72;;
71030;Laerm;63723;51.436;5.976;2023-03-25T00:10:42;50.77;49.38;53.91;;
71030;Laerm;63723;51.436;5.976;2023-03-25T00:10:53;50.93;49.13;54.11;;
71030;Laerm;63723;51.436;5.976;2023-03-25T00:11:04;50.95;49.23;55.57;;
71030;Laerm;63723;51.436;5.976;2023-03-25T00:11:15;50.69;49.10;53.95;;
71030;Laerm;63723;51.436;5.976;2023-03-25T00:11:26;50.75;49.28;53.59;;
71030;Laerm;63723;51.436;5.976;2023-03-25T00:11:37;50.70;49.19;54.81;;
71030;Laerm;63723;51.436;5.976;2023-03-25T00:11:51;50.72;49.12;53.38;;
71030;Laerm;63723;51.436;5.976;2023-03-25T00:12:01;50.83;48.91;55.50;;
71030;Laerm;63723;51.436;5.976;2023-03-25T00:12:11;51.05;48.91;54.23;;
71030;Laerm;63723;51.436;5.976;2023-03-25T00:12:22;50.80;49.26;55.40;;
71030;Laerm;63723;51.436;5.976;2023-03-25T00:12:32;50.85;48.94;54.82;;
71030;Laerm;63723;51.436;5.976;2023-03-25T00:12:46;50.77;49.03;54.05;;
71030;Laerm;63723;51.436;5.976;2023-03-25T00:12:56;51.06;49.03;55.41;;
71030;Laerm;63723;51.436;5.976;2023-03-25T00:13:13;50.96;49.02;56.21;;
71030;Laerm;63723;51.436;5.976;2023-03-25T00:13:24;50.95;49.28;54.72;;
71030;Laerm;63723;51.436;5.976;2023-03-25T00:13:35;50.96;49.18;54.82;;
71030;Laerm;63723;51.436;5.976;2023-03-25T00:13:45;50.85;49.11;53.28;;
71030;Laerm;63723;51.436;5.976;2023-03-25T00:13:57;50.98;49.30;53.98;;
71030;Laerm;63723;51.436;5.976;2023-03-25T00:14:07;51.06;49.16;55.34;;
71030;Laerm;63723;51.436;5.976;2023-03-25T00:14:17;50.77;49.11;56.53;;
71030;Laerm;63723;51.436;5.976;2023-03-25T00:14:28;50.68;48.98;54.24;;
71030;Laerm;63723;51.436;5.976;2023-03-25T00:14:38;50.98;48.98;55.81;;
71030;Laerm;63723;51.436;5.976;2023-03-25T00:14:49;50.83;49.17;54.48;;
71030;Laerm;63723;51.436;5.976;2023-03-25T00:15:08;50.74;48.98;53.98;;
71030;Laerm;63723;51.436;5.976;2023-03-25T00:15:19;50.94;48.79;58.19;;
71030;Laerm;63723;51.436;5.976;2023-03-25T00:15:31;51.11;49.06;55.97;;
71030;Laerm;63723;51.436;5.976;2023-03-25T00:15:44;51.04;49.24;55.25;;
71030;Laerm;63723;51.436;5.976;2023-03-25T00:15:57;50.73;49.15;53.86;;
71030;Laerm;63723;51.436;5.976;2023-03-25T00:16:07;50.74;49.33;53.92;;
71030;Laerm;63723;51.436;5.976;2023-03-25T00:16:19;50.92;49.02;54.39;;
71030;Laerm;63723;51.436;5.976;2023-03-25T00:16:29;51.46;49.23;59.51;;
71030;Laerm;63723;51.436;5.976;2023-03-25T00:16:39;51.71;49.07;55.03;;
71030;Laerm;63723;51.436;5.976;2023-03-25T00:16:57;51.54;49.14;57.07;;
71030;Laerm;63723;51.436;5.976;2023-03-25T00:17:07;51.92;49.44;55.18;;
71030;Laerm;63723;51.436;5.976;2023-03-25T00:17:20;51.84;49.44;55.13;;
71030;Laerm;63723;51.436;5.976;2023-03-25T00:17:30;51.60;49.55;56.93;;
71030;Laerm;63723;51.436;5.976;2023-03-25T00:17:41;51.63;49.47;54.87;;
71030;Laerm;63723;51.436;5.976;2023-03-25T00:17:51;52.87;49.54;59.70;;
71030;Laerm;63723;51.436;5.976;2023-03-25T00:18:01;51.75;49.47;59.36;;
71030;Laerm;63723;51.436;5.976;2023-03-25T00:18:12;52.93;49.68;59.46;;
71030;Laerm;63723;51.436;5.976;2023-03-25T00:18:23;51.97;49.95;59.81;;
71030;Laerm;63723;51.436;5.976;2023-03-25T00:18:34;52.01;49.61;61.67;;
71030;Laerm;63723;51.436;5.976;2023-03-25T00:18:46;51.61;49.51;56.05;;
71030;Laerm;63723;51.436;5.976;2023-03-25T00:18:57;51.54;49.34;54.76;;
71030;Laerm;63723;51.436;5.976;2023-03-25T00:19:08;51.39;49.22;54.57;;
71030;Laerm;63723;51.436;5.976;2023-03-25T00:19:19;51.19;49.43;53.57;;
71030;Laerm;63723;51.436;5.976;2023-03-25T00:19:30;51.06;49.41;53.74;;
71030;Laerm;63723;51.436;5.976;2023-03-25T00:19:41;51.93;49.33;56.45;;
71030;Laerm;63723;51.436;5.976;2023-03-25T00:19:51;51.90;49.36;57.05;;
71030;Laerm;63723;51.436;5.976;2023-03-25T00:20:02;51.74;49.34;55.51;;
71030;Laerm;63723;51.436;5.976;2023-03-25T00:20:20;51.91;49.40;56.38;;
71030;Laerm;63723;51.436;5.976;2023-03-25T00:20:30;52.49;49.52;55.85;;
71030;Laerm;63723;51.436;5.976;2023-03-25T00:20:41;52.80;50.05;56.06;;
71030;Laerm;63723;51.436;5.976;2023-03-25T00:20:55;52.76;49.52;56.17;;
71030;Laerm;63723;51.436;5.976;2023-03-25T00:21:05;52.71;50.25;56.19;;
71030;Laerm;63723;51.436;5.976;2023-03-25T00:21:20;52.88;50.01;56.15;;
71030;Laerm;63723;51.436;5.976;2023-03-25T00:21:32;53.04;49.81;57.33;;
71030;Laerm;63723;51.436;5.976;2023-03-25T00:21:43;53.10;50.03;57.35;;
71030;Laerm;63723;51.436;5.976;2023-03-25T00:21:53;52.81;50.12;56.10;;
71030;Laerm;63723;51.436;5.976;2023-03-25T00:22:04;52.60;50.11;56.39;;
71030;Laerm;63723;51.436;5.976;2023-03-25T00:22:14;52.63;50.32;56.14;;
71030;Laerm;63723;51.436;5.976;2023-03-25T00:22:25;52.74;50.08;55.69;;
71030;Laerm;63723;51.436;5.976;2023-03-25T00:22:35;52.89;50.31;56.21;;
71030;Laerm;63723;51.436;5.976;2023-03-25T00:22:49;52.62;49.95;56.37;;
71030;Laerm;63723;51.436;5.976;2023-03-25T00:23:00;52.41;49.65;57.08;;
71030;Laerm;63723;51.436;5.976;2023-03-25T00:23:13;52.14;49.41;56.73;;
71030;Laerm;63723;51.436;5.976;2023-03-25T00:23:23;51.98;49.53;55.65;;
71030;Laerm;63723;51.436;5.976;2023-03-25T00:23:34;53.08;49.39;58.14;;
71030;Laerm;63723;51.436;5.976;2023-03-25T00:23:44;53.83;49.88;58.57;;
71030;Laerm;63723;51.436;5.976;2023-03-25T00:23:54;53.46;50.20;57.09;;
71030;Laerm;63723;51.436;5.976;2023-03-25T00:24:05;53.04;50.36;56.91;;
71030;Laerm;63723;51.436;5.976;2023-03-25T00:24:15;53.62;49.86;56.72;;
71030;Laerm;63723;51.436;5.976;2023-03-25T00:24:29;53.56;50.12;57.91;;
71030;Laerm;63723;51.436;5.976;2023-03-25T00:24:39;52.64;49.88;56.41;;
71030;Laerm;63723;51.436;5.976;2023-03-25T00:24:49;53.13;49.87;56.99;;
71030;Laerm;63723;51.436;5.976;2023-03-25T00:25:00;53.92;50.56;58.10;;
71030;Laerm;63723;51.436;5.976;2023-03-25T00:25:12;53.93;50.66;57.43;;
71030;Laerm;63723;51.436;5.976;2023-03-25T00:25:26;52.88;49.46;56.87;;
71030;Laerm;63723;51.436;5.976;2023-03-25T00:25:36;52.66;50.30;55.90;;
71030;Laerm;63723;51.436;5.976;2023-03-25T00:25:46;52.89;50.24;57.26;;
71030;Laerm;63723;51.436;5.976;2023-03-25T00:25:57;53.08;50.28;58.41;;
71030;Laerm;63723;51.436;5.976;2023-03-25T00:26:10;52.78;50.17;56.64;;
71030;Laerm;63723;51.436;5.976;2023-03-25T00:26:20;52.75;49.95;58.03;;
71030;Laerm;63723;51.436;5.976;2023-03-25T00:26:31;52.74;49.53;57.04;;
71030;Laerm;63723;51.436;5.976;2023-03-25T00:26:41;52.88;50.19;58.73;;
71030;Laerm;63723;51.436;5.976;2023-03-25T00:26:52;52.82;49.95;56.08;;
71030;Laerm;63723;51.436;5.976;2023-03-25T00:27:03;52.95;49.23;55.99;;
71030;Laerm;63723;51.436;5.976;2023-03-25T00:27:13;51.94;49.15;57.19;;
71030;Laerm;63723;51.436;5.976;2023-03-25T00:27:26;52.31;49.13;58.39;;
71030;Laerm;63723;51.436;5.976;2023-03-25T00:27:36;54.64;52.38;57.35;;
71030;Laerm;63723;51.436;5.976;2023-03-25T00:27:47;54.71;52.89;57.57;;
71030;Laerm;63723;51.436;5.976;2023-03-25T00:27:59;55.35;52.96;57.50;;
71030;Laerm;63723;51.436;5.976;2023-03-25T00:28:10;54.22;50.30;57.33;;
71030;Laerm;63723;51.436;5.976;2023-03-25T00:28:20;54.19;49.36;57.71;;
71030;Laerm;63723;51.436;5.976;2023-03-25T00:28:32;54.63;49.51;59.31;;
71030;Laerm;63723;51.436;5.976;2023-03-25T00:28:42;52.70;49.32;56.60;;
71030;Laerm;63723;51.436;5.976;2023-03-25T00:28:52;52.63;49.33;56.61;;
71030;Laerm;63723;51.436;5.976;2023-03-25T00:29:03;52.44;49.28;57.03;;
71030;Laerm;63723;51.436;5.976;2023-03-25T00:29:13;53.09;49.47;57.63;;
71030;Laerm;63723;51.436;5.976;2023-03-25T00:29:24;53.15;49.20;57.77;;
71030;Laerm;63723;51.436;5.976;2023-03-25T00:29:35;52.77;49.00;57.82;;
71030;Laerm;63723;51.436;5.976;2023-03-25T00:29:45;56.66;49.33;61.56;;
71030;Laerm;63723;51.436;5.976;2023-03-25T00:29:55;58.16;50.89;62.06;;
71030;Laerm;63723;51.436;5.976;2023-03-25T00:30:06;54.60;48.75;59.07;;
71030;Laerm;63723;51.436;5.976;2023-03-25T00:30:17;54.30;49.10;59.70;;
71030;Laerm;63723;51.436;5.976;2023-03-25T00:30:28;55.23;48.90;59.94;;
71030;Laerm;63723;51.436;5.976;2023-03-25T00:30:39;56.27;49.04;61.00;;
71030;Laerm;63723;51.436;5.976;2023-03-25T00:30:49;54.67;49.20;59.62;;
71030;Laerm;63723;51.436;5.976;2023-03-25T00:31:05;54.50;49.16;59.33;;
71030;Laerm;63723;51.436;5.976;2023-03-25T00:31:16;56.42;49.36;62.25;;
71030;Laerm;63723;51.436;5.976;2023-03-25T00:31:26;57.86;50.27;61.76;;
71030;Laerm;63723;51.436;5.976;2023-03-25T00:31:37;56.83;50.70;60.39;;
71030;Laerm;63723;51.436;5.976;2023-03-25T00:31:47;57.04;51.31;61.40;;
71030;Laerm;63723;51.436;5.976;2023-03-25T00:31:57;57.50;51.27;61.07;;
71030;Laerm;63723;51.436;5.976;2023-03-25T00:32:08;57.10;50.37;61.34;;
71030;Laerm;63723;51.436;5.976;2023-03-25T00:32:18;57.45;50.64;61.93;;
71030;Laerm;63723;51.436;5.976;2023-03-25T00:32:30;58.04;50.45;62.32;;
71030;Laerm;63723;51.436;5.976;2023-03-25T00:32:40;57.32;50.59;61.84;;
71030;Laerm;63723;51.436;5.976;2023-03-25T00:32:50;55.45;49.38;59.86;;
71030;Laerm;63723;51.436;5.976;2023-03-25T00:33:04;53.69;49.12;58.39;;
71030;Laerm;63723;51.436;5.976;2023-03-25T00:33:17;54.78;49.29;60.48;;
71030;Laerm;63723;51.436;5.976;2023-03-25T00:33:27;57.50;49.73;61.65;;
71030;Laerm;63723;51.436;5.976;2023-03-25T00:33:38;57.21;49.97;61.22;;
71030;Laerm;63723;51.436;5.976;2023-03-25T00:33:54;57.22;50.72;61.49;;
71030;Laerm;63723;51.436;5.976;2023-03-25T00:34:07;52.73;49.34;59.73;;
71030;Laerm;63723;51.436;5.976;2023-03-25T00:34:17;50.92;49.27;53.61;;
71030;Laerm;63723;51.436;5.976;2023-03-25T00:34:29;51.13;49.63;55.15;;
71030;Laerm;63723;51.436;5.976;2023-03-25T00:34:39;50.96;49.33;54.22;;
71030;Laerm;63723;51.436;5.976;2023-03-25T00:34:56;51.22;48.80;55.11;;
71030;Laerm;63723;51.436;5.976;2023-03-25T00:35:06;51.05;49.14;54.22;;
71030;Laerm;63723;51.436;5.976;2023-03-25T00:35:17;50.44;48.92;53.50;;
71030;Laerm;63723;51.436;5.976;2023-03-25T00:35:28;50.59;48.98;53.98;;
71030;Laerm;63723;51.436;5.976;2023-03-25T00:35:39;50.72;49.14;53.89;;
71030;Laerm;63723;51.436;5.976;2023-03-25T00:35:54;50.46;48.66;54.19;;
71030;Laerm;63723;51.436;5.976;2023-03-25T00:36:08;50.08;48.69;54.22;;
71030;Laerm;63723;51.436;5.976;2023-03-25T00:36:22;50.43;48.82;54.50;;
71030;Laerm;63723;51.436;5.976;2023-03-25T00:36:32;50.37;48.92;53.89;;
71030;Laerm;63723;51.436;5.976;2023-03-25T00:36:46;50.32;48.78;54.49;;
71030;Laerm;63723;51.436;5.976;2023-03-25T00:36:56;50.24;48.67;53.77;;
71030;Laerm;63723;51.436;5.976;2023-03-25T00:37:08;50.25;48.86;53.97;;
71030;Laerm;63723;51.436;5.976;2023-03-25T00:37:18;50.29;48.89;54.09;;
71030;Laerm;63723;51.436;5.976;2023-03-25T00:37:30;50.41;48.90;53.90;;
71030;Laerm;63723;51.436;5.976;2023-03-25T00:37:41;50.58;49.21;55.33;;
71030;Laerm;63723;51.436;5.976;2023-03-25T00:37:52;50.57;48.99;53.80;;
71030;Laerm;63723;51.436;5.976;2023-03-25T00:38:12;50.54;48.98;53.87;;
71030;Laerm;63723;51.436;5.976;2023-03-25T00:38:22;50.62;49.14;54.29;;
71030;Laerm;63723;51.436;5.976;2023-03-25T00:38:33;50.59;49.02;53.99;;
71030;Laerm;63723;51.436;5.976;2023-03-25T00:38:46;50.73;49.04;53.80;;
71030;Laerm;63723;51.436;5.976;2023-03-25T00:38:57;50.55;48.87;54.30;;
71030;Laerm;63723;51.436;5.976;2023-03-25T00:39:08;50.64;48.85;54.66;;
71030;Laerm;63723;51.436;5.976;2023-03-25T00:39:18;50.59;48.86;53.64;;
71030;Laerm;63723;51.436;5.976;2023-03-25T00:39:29;50.81;49.18;53.96;;
71030;Laerm;63723;51.436;5.976;2023-03-25T00:39:39;50.76;49.24;54.99;;
71030;Laerm;63723;51.436;5.976;2023-03-25T00:39:49;50.61;49.20;53.72;;
71030;Laerm;63723;51.436;5.976;2023-03-25T00:40:00;50.72;49.32;53.91;;
71030;Laerm;63723;51.436;5.976;2023-03-25T00:40:10;50.66;48.66;54.09;;
71030;Laerm;63723;51.436;5.976;2023-03-25T00:40:20;50.63;49.16;54.32;;
71030;Laerm;63723;51.436;5.976;2023-03-25T00:40:31;50.79;49.05;53.65;;
71030;Laerm;63723;51.436;5.976;2023-03-25T00:40:44;51.46;48.89;69.77;;
71030;Laerm;63723;51.436;5.976;2023-03-25T00:40:55;51.59;49.08;63.91;;
71030;Laerm;63723;51.436;5.976;2023-03-25T00:41:12;50.61;49.10;53.95;;
71030;Laerm;63723;51.436;5.976;2023-03-25T00:41:26;50.68;49.07;54.45;;
71030;Laerm;63723;51.436;5.976;2023-03-25T00:41:37;50.76;49.34;54.10;;
71030;Laerm;63723;51.436;5.976;2023-03-25T00:41:51;50.79;49.33;55.35;;
71030;Laerm;63723;51.436;5.976;2023-03-25T00:42:03;50.64;49.30;53.96;;
71030;Laerm;63723;51.436;5.976;2023-03-25T00:42:14;50.75;49.35;54.19;;
71030;Laerm;63723;51.436;5.976;2023-03-25T00:42:24;50.74;49.41;53.92;;
71030;Laerm;63723;51.436;5.976;2023-03-25T00:42:39;50.81;49.15;53.92;;
71030;Laerm;63723;51.436;5.976;2023-03-25T00:42:59;50.93;49.03;55.52;;
71030;Laerm;63723;51.436;5.976;2023-03-25T00:43:09;53.92;50.30;56.74;;
71030;Laerm;63723;51.436;5.976;2023-03-25T00:43:20;51.95;49.39;56.50;;
71030;Laerm;63723;51.436;5.976;2023-03-25T00:43:30;51.02;49.67;53.89;;
71030;Laerm;63723;51.436;5.976;2023-03-25T00:43:40;50.70;49.21;54.01;;
71030;Laerm;63723;51.436;5.976;2023-03-25T00:43:51;50.32;48.74;53.62;;
71030;Laerm;63723;51.436;5.976;2023-03-25T00:44:02;50.49;48.81;53.71;;
71030;Laerm;63723;51.436;5.976;2023-03-25T00:44:12;50.54;49.12;54.58;;
71030;Laerm;63723;51.436;5.976;2023-03-25T00:44:23;50.42;48.98;55.34;;
71030;Laerm;63723;51.436;5.976;2023-03-25T00:44:33;50.59;48.71;54.17;;
71030;Laerm;63723;51.436;5.976;2023-03-25T00:44:43;50.49;48.90;53.75;;
71030;Laerm;63723;51.436;5.976;2023-03-25T00:44:54;50.55;48.95;53.79;;
71030;Laerm;63723;51.436;5.976;2023-03-25T00:45:04;51.32;48.76;54.90;;
71030;Laerm;63723;51.436;5.976;2023-03-25T00:45:15;50.62;48.81;54.06;;
71030;Laerm;63723;51.436;5.976;2023-03-25T00:45:25;50.47;49.23;53.58;;
71030;Laerm;63723;51.436;5.976;2023-03-25T00:45:36;50.47;48.95;54.21;;
71030;Laerm;63723;51.436;5.976;2023-03-25T00:45:46;50.59;48.85;53.67;;
71030;Laerm;63723;51.436;5.976;2023-03-25T00:45:56;50.53;49.13;53.70;;
71030;Laerm;63723;51.436;5.976;2023-03-25T00:46:06;50.50;49.02;55.25;;
71030;Laerm;63723;51.436;5.976;2023-03-25T00:46:17;50.52;48.96;54.50;;
71030;Laerm;63723;51.436;5.976;2023-03-25T00:46:28;50.58;49.33;53.66;;
71030;Laerm;63723;51.436;5.976;2023-03-25T00:46:39;50.56;48.99;53.68;;
71030;Laerm;63723;51.436;5.976;2023-03-25T00:46:49;50.57;49.00;53.84;;
71030;Laerm;63723;51.436;5.976;2023-03-25T00:47:00;50.50;48.88;52.95;;
71030;Laerm;63723;51.436;5.976;2023-03-25T00:47:10;50.53;48.92;54.01;;
71030;Laerm;63723;51.436;5.976;2023-03-25T00:47:26;50.63;49.04;53.89;;
71030;Laerm;63723;51.436;5.976;2023-03-25T00:47:36;51.04;49.37;54.11;;
71030;Laerm;63723;51.436;5.976;2023-03-25T00:47:47;50.40;49.03;53.18;;
71030;Laerm;63723;51.436;5.976;2023-03-25T00:47:57;50.38;48.99;53.23;;
71030;Laerm;63723;51.436;5.976;2023-03-25T00:48:07;50.29;49.08;53.15;;
71030;Laerm;63723;51.436;5.976;2023-03-25T00:48:17;50.26;48.93;53.21;;
71030;Laerm;63723;51.436;5.976;2023-03-25T00:48:28;50.28;49.01;55.19;;
71030;Laerm;63723;51.436;5.976;2023-03-25T00:48:38;50.61;49.01;54.37;;
71030;Laerm;63723;51.436;5.976;2023-03-25T00:48:49;50.47;48.89;53.44;;
71030;Laerm;63723;51.436;5.976;2023-03-25T00:48:59;50.40;49.19;53.44;;
71030;Laerm;63723;51.436;5.976;2023-03-25T00:49:10;50.34;48.94;53.60;;
71030;Laerm;63723;51.436;5.976;2023-03-25T00:49:21;50.76;48.96;53.81;;
71030;Laerm;63723;51.436;5.976;2023-03-25T00:49:34;51.21;49.31;53.98;;
71030;Laerm;63723;51.436;5.976;2023-03-25T00:49:44;51.05;49.28;54.25;;
71030;Laerm;63723;51.436;5.976;2023-03-25T00:49:55;51.18;49.31;53.88;;
71030;Laerm;63723;51.436;5.976;2023-03-25T00:50:05;50.75;49.11;53.77;;
71030;Laerm;63723;51.436;5.976;2023-03-25T00:50:19;50.64;49.28;54.27;;
71030;Laerm;63723;51.436;5.976;2023-03-25T00:50:30;51.48;49.73;54.16;;
71030;Laerm;63723;51.436;5.976;2023-03-25T00:50:41;50.78;49.19;53.73;;
71030;Laerm;63723;51.436;5.976;2023-03-25T00:50:51;50.76;49.35;53.71;;
71030;Laerm;63723;51.436;5.976;2023-03-25T00:51:02;51.12;49.30;54.65;;
71030;Laerm;63723;51.436;5.976;2023-03-25T00:51:16;51.33;49.30;53.97;;
71030;Laerm;63723;51.436;5.976;2023-03-25T00:51:30;51.51;49.79;54.15;;
71030;Laerm;63723;51.436;5.976;2023-03-25T00:51:42;51.56;49.71;54.07;;
71030;Laerm;63723;51.436;5.976;2023-03-25T00:51:53;51.69;49.92;54.72;;
71030;Laerm;63723;51.436;5.976;2023-03-25T00:52:04;51.26;49.48;55.69;;
71030;Laerm;63723;51.436;5.976;2023-03-25T00:52:15;51.34;49.68;54.11;;
71030;Laerm;63723;51.436;5.976;2023-03-25T00:52:27;51.50;49.78;54.34;;
71030;Laerm;63723;51.436;5.976;2023-03-25T00:52:37;51.35;49.72;54.36;;
71030;Laerm;63723;51.436;5.976;2023-03-25T00:52:48;51.54;49.94;54.15;;
71030;Laerm;63723;51.436;5.976;2023-03-25T00:52:58;51.51;49.90;54.41;;
71030;Laerm;63723;51.436;5.976;2023-03-25T00:53:08;51.20;49.49;54.16;;
71030;Laerm;63723;51.436;5.976;2023-03-25T00:53:18;51.27;49.60;53.80;;
71030;Laerm;63723;51.436;5.976;2023-03-25T00:53:29;51.18;49.79;53.74;;
71030;Laerm;63723;51.436;5.976;2023-03-25T00:53:39;51.29;49.79;54.05;;
71030;Laerm;63723;51.436;5.976;2023-03-25T00:53:51;51.43;49.88;54.02;;
71030;Laerm;63723;51.436;5.976;2023-03-25T00:54:02;51.92;50.11;54.77;;
71030;Laerm;63723;51.436;5.976;2023-03-25T00:54:12;51.68;49.06;54.14;;
71030;Laerm;63723;51.436;5.976;2023-03-25T00:54:23;50.86;48.67;54.62;;
71030;Laerm;63723;51.436;5.976;2023-03-25T00:54:33;50.22;48.98;53.41;;
71030;Laerm;63723;51.436;5.976;2023-03-25T00:54:43;50.10;48.84;53.18;;
71030;Laerm;63723;51.436;5.976;2023-03-25T00:54:54;50.16;48.78;52.71;;
71030;Laerm;63723;51.436;5.976;2023-03-25T00:55:05;50.49;48.57;55.50;;
71030;Laerm;63723;51.436;5.976;2023-03-25T00:55:16;50.20;48.80;53.98;;
71030;Laerm;63723;51.436;5.976;2023-03-25T00:55:27;50.29;49.02;54.26;;
71030;Laerm;63723;51.436;5.976;2023-03-25T00:55:37;50.28;48.62;53.70;;
71030;Laerm;63723;51.436;5.976;2023-03-25T00:55:48;50.28;48.77;53.55;;
71030;Laerm;63723;51.436;5.976;2023-03-25T00:55:58;50.33;48.96;53.47;;
71030;Laerm;63723;51.436;5.976;2023-03-25T00:56:09;50.29;49.05;53.24;;
71030;Laerm;63723;51.436;5.976;2023-03-25T00:56:22;50.53;49.05;53.79;;
71030;Laerm;63723;51.436;5.976;2023-03-25T00:56:32;50.26;49.03;53.97;;
71030;Laerm;63723;51.436;5.976;2023-03-25T00:56:43;50.69;48.94;55.82;;
71030;Laerm;63723;51.436;5.976;2023-03-25T00:56:53;50.94;49.57;53.57;;
71030;Laerm;63723;51.436;5.976;2023-03-25T00:57:03;50.48;48.89;53.95;;
71030;Laerm;63723;51.436;5.976;2023-03-25T00:57:13;50.72;48.80;53.70;;
71030;Laerm;63723;51.436;5.976;2023-03-25T00:57:24;51.16;49.68;54.97;;
71030;Laerm;63723;51.436;5.976;2023-03-25T00:57:34;51.03;49.22;54.62;;
71030;Laerm;63723;51.436;5.976;2023-03-25T00:57:45;50.88;49.11;54.64;;
71030;Laerm;63723;51.436;5.976;2023-03-25T00:57:55;50.89;49.21;54.78;;
71030;Laerm;63723;51.436;5.976;2023-03-25T00:58:05;50.94;49.21;55.03;;
71030;Laerm;63723;51.436;5.976;2023-03-25T00:58:15;50.87;49.20;55.31;;
71030;Laerm;63723;51.436;5.976;2023-03-25T00:58:26;50.87;49.00;55.00;;
71030;Laerm;63723;51.436;5.976;2023-03-25T00:58:36;50.82;48.72;54.98;;
71030;Laerm;63723;51.436;5.976;2023-03-25T00:58:47;50.75;49.25;55.24;;
71030;Laerm;63723;51.436;5.976;2023-03-25T00:58:57;50.90;49.27;55.28;;
71030;Laerm;63723;51.436;5.976;2023-03-25T00:59:07;50.82;49.15;54.54;;
71030;Laerm;63723;51.436;5.976;2023-03-25T00:59:18;50.72;48.89;54.84;;
71030;Laerm;63723;51.436;5.976;2023-03-25T00:59:28;50.75;49.05;55.20;;
71030;Laerm;63723;51.436;5.976;2023-03-25T00:59:38;50.82;49.00;54.59;;
71030;Laerm;63723;51.436;5.976;2023-03-25T00:59:49;50.89;49.28;55.58;;
71030;Laerm;63723;51.436;5.976;2023-03-25T00:59:59;50.49;48.80;54.81;;
71030;Laerm;63723;51.436;5.976;2023-03-25T01:00:11;50.62;49.02;54.19;;
71030;Laerm;63723;51.436;5.976;2023-03-25T01:00:21;50.50;48.79;54.74;;
71030;Laerm;63723;51.436;5.976;2023-03-25T01:00:32;50.57;48.80;54.47;;
71030;Laerm;63723;51.436;5.976;2023-03-25T01:00:42;50.75;49.19;55.34;;
71030;Laerm;63723;51.436;5.976;2023-03-25T01:00:52;50.77;48.84;54.89;;
71030;Laerm;63723;51.436;5.976;2023-03-25T01:01:12;50.85;48.95;55.50;;
71030;Laerm;63723;51.436;5.976;2023-03-25T01:01:24;50.94;49.11;56.28;;
71030;Laerm;63723;51.436;5.976;2023-03-25T01:01:37;50.70;48.95;55.28;;
71030;Laerm;63723;51.436;5.976;2023-03-25T01:01:48;50.70;48.93;54.84;;
71030;Laerm;63723;51.436;5.976;2023-03-25T01:02:02;50.68;49.04;55.68;;
71030;Laerm;63723;51.436;5.976;2023-03-25T01:02:12;50.72;49.13;54.95;;
71030;Laerm;63723;51.436;5.976;2023-03-25T01:02:25;50.79;49.25;55.49;;
71030;Laerm;63723;51.436;5.976;2023-03-25T01:02:35;50.67;49.19;54.44;;
71030;Laerm;63723;51.436;5.976;2023-03-25T01:02:48;50.72;49.16;54.54;;
71030;Laerm;63723;51.436;5.976;2023-03-25T01:03:02;50.93;49.25;54.60;;
71030;Laerm;63723;51.436;5.976;2023-03-25T01:03:13;51.11;49.44;55.18;;
71030;Laerm;63723;51.436;5.976;2023-03-25T01:03:24;51.10;49.49;54.95;;